sensor_id;sensor_type;location;lat;lon;timestamp;pressure;altitude;pressure_sealevel;temperature;humidity
58785;BME280;44557;51.862;19.378;2022-12-10T00:00:10;98337.78;;;0.87;96.32
58785;BME280;44557;51.862;19.378;2022-12-10T00:01:30;98335.28;;;0.89;96.40
58785;BME280;44557;51.862;19.378;2022-12-10T00:02:31;98332.59;;;0.84;96.64
58785;BME280;44557;51.862;19.378;2022-12-10T00:03:34;98333.85;;;0.86;96.57
58785;BME280;44557;51.862;19.378;2022-12-10T00:04:35;98330.60;;;0.81;96.51
58785;BME280;44557;51.862;19.378;2022-12-10T00:05:37;98334.83;;;0.88;96.67
58785;BME280;44557;51.862;19.378;2022-12-10T00:06:39;98330.55;;;0.91;96.74
58785;BME280;44557;51.862;19.378;2022-12-10T00:07:41;98331.49;;;0.90;96.64
58785;BME280;44557;51.862;19.378;2022-12-10T00:08:43;98331.23;;;0.84;96.41
58785;BME280;44557;51.862;19.378;2022-12-10T00:09:45;98331.77;;;0.89;96.39
58785;BME280;44557;51.862;19.378;2022-12-10T00:10:47;98332.89;;;0.85;96.64
58785;BME280;44557;51.862;19.378;2022-12-10T00:11:48;98335.52;;;0.88;96.79
58785;BME280;44557;51.862;19.378;2022-12-10T00:12:50;98337.85;;;0.87;96.63
58785;BME280;44557;51.862;19.378;2022-12-10T00:13:52;98341.59;;;0.89;96.31
58785;BME280;44557;51.862;19.378;2022-12-10T00:14:54;98342.53;;;0.87;96.41
58785;BME280;44557;51.862;19.378;2022-12-10T00:15:59;98346.53;;;0.89;96.46
58785;BME280;44557;51.862;19.378;2022-12-10T00:17:01;98342.48;;;0.89;96.58
58785;BME280;44557;51.862;19.378;2022-12-10T00:18:02;98342.08;;;0.94;96.55
58785;BME280;44557;51.862;19.378;2022-12-10T00:19:04;98342.90;;;0.93;96.36
58785;BME280;44557;51.862;19.378;2022-12-10T00:20:06;98340.32;;;0.90;96.38
58785;BME280;44557;51.862;19.378;2022-12-10T00:21:12;98337.51;;;0.89;96.33
58785;BME280;44557;51.862;19.378;2022-12-10T00:22:14;98336.30;;;0.85;96.57
58785;BME280;44557;51.862;19.378;2022-12-10T00:23:16;98335.98;;;0.90;96.61
58785;BME280;44557;51.862;19.378;2022-12-10T00:24:17;98333.73;;;0.89;96.53
58785;BME280;44557;51.862;19.378;2022-12-10T00:25:19;98329.89;;;0.89;96.49
58785;BME280;44557;51.862;19.378;2022-12-10T00:26:23;98333.49;;;0.85;96.52
58785;BME280;44557;51.862;19.378;2022-12-10T00:27:25;98332.48;;;0.88;96.57
58785;BME280;44557;51.862;19.378;2022-12-10T00:28:26;98333.64;;;0.92;96.08
58785;BME280;44557;51.862;19.378;2022-12-10T00:29:28;98335.75;;;0.88;96.40
58785;BME280;44557;51.862;19.378;2022-12-10T00:30:30;98338.22;;;0.96;96.35
58785;BME280;44557;51.862;19.378;2022-12-10T00:31:33;98335.13;;;0.90;96.57
58785;BME280;44557;51.862;19.378;2022-12-10T00:32:35;98332.16;;;0.90;96.18
58785;BME280;44557;51.862;19.378;2022-12-10T00:33:38;98330.11;;;0.85;96.55
58785;BME280;44557;51.862;19.378;2022-12-10T00:34:39;98330.52;;;0.93;96.38
58785;BME280;44557;51.862;19.378;2022-12-10T00:35:41;98326.40;;;0.92;96.56
58785;BME280;44557;51.862;19.378;2022-12-10T00:36:45;98326.59;;;0.90;96.13
58785;BME280;44557;51.862;19.378;2022-12-10T00:37:47;98326.32;;;0.85;96.42
58785;BME280;44557;51.862;19.378;2022-12-10T00:38:49;98327.98;;;0.84;96.36
58785;BME280;44557;51.862;19.378;2022-12-10T00:39:51;98327.80;;;0.95;96.26
58785;BME280;44557;51.862;19.378;2022-12-10T00:40:52;98328.04;;;0.90;96.03
58785;BME280;44557;51.862;19.378;2022-12-10T00:41:54;98323.23;;;0.92;96.23
58785;BME280;44557;51.862;19.378;2022-12-10T00:42:56;98329.45;;;0.89;96.10
58785;BME280;44557;51.862;19.378;2022-12-10T00:43:57;98332.05;;;0.88;96.25
58785;BME280;44557;51.862;19.378;2022-12-10T00:44:59;98330.18;;;0.85;96.24
58785;BME280;44557;51.862;19.378;2022-12-10T00:46:01;98334.66;;;0.83;96.66
58785;BME280;44557;51.862;19.378;2022-12-10T00:47:02;98331.38;;;0.83;96.25
58785;BME280;44557;51.862;19.378;2022-12-10T00:48:04;98333.73;;;0.82;96.54
58785;BME280;44557;51.862;19.378;2022-12-10T00:49:06;98333.60;;;0.82;96.70
58785;BME280;44557;51.862;19.378;2022-12-10T00:50:07;98334.86;;;0.92;96.44
58785;BME280;44557;51.862;19.378;2022-12-10T00:52:13;98331.88;;;0.86;96.58
58785;BME280;44557;51.862;19.378;2022-12-10T00:53:15;98332.92;;;0.95;96.55
58785;BME280;44557;51.862;19.378;2022-12-10T00:54:17;98333.84;;;0.93;96.41
58785;BME280;44557;51.862;19.378;2022-12-10T00:55:18;98332.83;;;0.95;96.20
58785;BME280;44557;51.862;19.378;2022-12-10T00:56:23;98330.77;;;0.92;96.20
58785;BME280;44557;51.862;19.378;2022-12-10T00:57:25;98331.13;;;0.93;96.17
58785;BME280;44557;51.862;19.378;2022-12-10T00:58:28;98326.16;;;0.90;96.10
58785;BME280;44557;51.862;19.378;2022-12-10T00:59:30;98326.91;;;0.88;96.38
58785;BME280;44557;51.862;19.378;2022-12-10T01:00:32;98327.04;;;0.92;96.28
58785;BME280;44557;51.862;19.378;2022-12-10T01:01:36;98328.60;;;0.92;96.27
58785;BME280;44557;51.862;19.378;2022-12-10T01:02:38;98324.59;;;0.99;96.15
58785;BME280;44557;51.862;19.378;2022-12-10T01:03:40;98329.36;;;0.92;96.18
58785;BME280;44557;51.862;19.378;2022-12-10T01:04:42;98323.92;;;0.93;96.30
58785;BME280;44557;51.862;19.378;2022-12-10T01:05:44;98318.67;;;0.90;96.30
58785;BME280;44557;51.862;19.378;2022-12-10T01:06:49;98316.86;;;0.96;96.29
58785;BME280;44557;51.862;19.378;2022-12-10T01:07:50;98317.41;;;0.93;96.08
58785;BME280;44557;51.862;19.378;2022-12-10T01:08:57;98321.73;;;0.91;96.51
58785;BME280;44557;51.862;19.378;2022-12-10T01:09:59;98326.89;;;0.96;96.39
58785;BME280;44557;51.862;19.378;2022-12-10T01:11:00;98325.07;;;0.93;96.27
58785;BME280;44557;51.862;19.378;2022-12-10T01:12:03;98327.55;;;0.93;96.06
58785;BME280;44557;51.862;19.378;2022-12-10T01:13:04;98328.40;;;0.87;96.22
58785;BME280;44557;51.862;19.378;2022-12-10T01:14:09;98326.77;;;0.90;96.50
58785;BME280;44557;51.862;19.378;2022-12-10T01:15:13;98328.08;;;0.90;96.15
58785;BME280;44557;51.862;19.378;2022-12-10T01:16:17;98327.84;;;0.88;96.36
58785;BME280;44557;51.862;19.378;2022-12-10T01:17:19;98330.80;;;0.91;95.90
58785;BME280;44557;51.862;19.378;2022-12-10T01:18:22;98337.29;;;0.89;96.32
58785;BME280;44557;51.862;19.378;2022-12-10T01:19:24;98340.77;;;0.89;96.26
58785;BME280;44557;51.862;19.378;2022-12-10T01:20:26;98340.75;;;0.92;96.20
58785;BME280;44557;51.862;19.378;2022-12-10T01:21:28;98341.52;;;0.95;96.13
58785;BME280;44557;51.862;19.378;2022-12-10T01:22:30;98341.48;;;0.87;96.32
58785;BME280;44557;51.862;19.378;2022-12-10T01:23:38;98340.98;;;0.80;96.59
58785;BME280;44557;51.862;19.378;2022-12-10T01:24:40;98339.52;;;0.82;96.81
58785;BME280;44557;51.862;19.378;2022-12-10T01:25:41;98338.96;;;0.87;96.95
58785;BME280;44557;51.862;19.378;2022-12-10T01:26:43;98341.10;;;0.88;96.40
58785;BME280;44557;51.862;19.378;2022-12-10T01:27:45;98336.68;;;0.85;96.81
58785;BME280;44557;51.862;19.378;2022-12-10T01:28:47;98338.73;;;0.93;96.24
58785;BME280;44557;51.862;19.378;2022-12-10T01:29:49;98340.25;;;0.93;96.31
58785;BME280;44557;51.862;19.378;2022-12-10T01:30:50;98340.70;;;0.94;96.02
58785;BME280;44557;51.862;19.378;2022-12-10T01:31:53;98338.27;;;0.93;96.14
58785;BME280;44557;51.862;19.378;2022-12-10T01:32:55;98340.50;;;0.91;96.06
58785;BME280;44557;51.862;19.378;2022-12-10T01:33:57;98336.41;;;0.90;96.26
58785;BME280;44557;51.862;19.378;2022-12-10T01:34:59;98337.16;;;0.94;96.06
58785;BME280;44557;51.862;19.378;2022-12-10T01:36:03;98334.59;;;0.96;95.96
58785;BME280;44557;51.862;19.378;2022-12-10T01:37:05;98325.41;;;0.96;96.08
58785;BME280;44557;51.862;19.378;2022-12-10T01:38:06;98326.16;;;0.99;96.04
58785;BME280;44557;51.862;19.378;2022-12-10T01:39:11;98325.52;;;0.98;96.11
58785;BME280;44557;51.862;19.378;2022-12-10T01:40:13;98326.14;;;0.95;95.97
58785;BME280;44557;51.862;19.378;2022-12-10T01:41:26;98324.11;;;0.97;95.88
58785;BME280;44557;51.862;19.378;2022-12-10T01:42:29;98321.97;;;0.97;96.03
58785;BME280;44557;51.862;19.378;2022-12-10T01:44:57;98317.55;;;0.89;96.07
58785;BME280;44557;51.862;19.378;2022-12-10T01:45:59;98321.86;;;0.89;96.27
58785;BME280;44557;51.862;19.378;2022-12-10T01:47:01;98322.49;;;0.94;96.07
58785;BME280;44557;51.862;19.378;2022-12-10T01:48:03;98320.96;;;0.85;96.15
58785;BME280;44557;51.862;19.378;2022-12-10T01:49:09;98322.21;;;0.90;96.20
58785;BME280;44557;51.862;19.378;2022-12-10T01:50:11;98323.09;;;0.89;96.14
58785;BME280;44557;51.862;19.378;2022-12-10T01:51:14;98323.23;;;0.90;95.97
58785;BME280;44557;51.862;19.378;2022-12-10T01:52:16;98322.62;;;0.89;96.14
58785;BME280;44557;51.862;19.378;2022-12-10T01:53:17;98320.92;;;0.89;96.18
58785;BME280;44557;51.862;19.378;2022-12-10T01:54:31;98319.54;;;0.95;96.23
58785;BME280;44557;51.862;19.378;2022-12-10T01:56:47;98323.47;;;1.02;95.78
58785;BME280;44557;51.862;19.378;2022-12-10T01:57:50;98324.80;;;1.06;95.58
58785;BME280;44557;51.862;19.378;2022-12-10T01:58:54;98323.21;;;1.08;95.33
58785;BME280;44557;51.862;19.378;2022-12-10T02:00:02;98323.58;;;0.94;95.59
58785;BME280;44557;51.862;19.378;2022-12-10T02:01:09;98323.88;;;1.01;95.44
58785;BME280;44557;51.862;19.378;2022-12-10T02:05:15;98318.69;;;1.03;95.51
58785;BME280;44557;51.862;19.378;2022-12-10T02:09:11;98316.92;;;0.97;95.64
58785;BME280;44557;51.862;19.378;2022-12-10T02:11:36;98320.46;;;1.03;95.46
58785;BME280;44557;51.862;19.378;2022-12-10T02:15:25;98314.05;;;0.97;95.55
58785;BME280;44557;51.862;19.378;2022-12-10T02:17:11;98311.50;;;0.97;95.92
58785;BME280;44557;51.862;19.378;2022-12-10T02:18:08;98312.15;;;0.98;95.65
58785;BME280;44557;51.862;19.378;2022-12-10T02:20:56;98308.83;;;0.96;95.86
58785;BME280;44557;51.862;19.378;2022-12-10T02:22:00;98308.83;;;1.01;95.79
58785;BME280;44557;51.862;19.378;2022-12-10T02:23:12;98306.60;;;1.00;95.79
58785;BME280;44557;51.862;19.378;2022-12-10T02:24:22;98311.20;;;1.03;95.59
58785;BME280;44557;51.862;19.378;2022-12-10T02:25:39;98307.41;;;0.96;95.76
58785;BME280;44557;51.862;19.378;2022-12-10T02:26:49;98310.85;;;0.99;95.75
58785;BME280;44557;51.862;19.378;2022-12-10T02:29:26;98313.45;;;0.96;95.87
58785;BME280;44557;51.862;19.378;2022-12-10T02:30:30;98312.86;;;0.95;96.03
58785;BME280;44557;51.862;19.378;2022-12-10T02:31:33;98312.61;;;0.96;96.03
58785;BME280;44557;51.862;19.378;2022-12-10T02:32:39;98312.99;;;0.92;96.12
58785;BME280;44557;51.862;19.378;2022-12-10T02:33:48;98315.95;;;0.97;96.08
58785;BME280;44557;51.862;19.378;2022-12-10T02:34:54;98315.44;;;1.03;95.85
58785;BME280;44557;51.862;19.378;2022-12-10T02:35:58;98318.74;;;1.01;95.74
58785;BME280;44557;51.862;19.378;2022-12-10T02:37:04;98319.82;;;1.01;96.14
58785;BME280;44557;51.862;19.378;2022-12-10T02:38:12;98319.00;;;1.01;96.15
58785;BME280;44557;51.862;19.378;2022-12-10T02:39:20;98316.70;;;0.97;95.94
58785;BME280;44557;51.862;19.378;2022-12-10T02:40:26;98320.98;;;0.98;95.75
58785;BME280;44557;51.862;19.378;2022-12-10T02:41:34;98320.13;;;0.99;96.29
58785;BME280;44557;51.862;19.378;2022-12-10T02:42:39;98321.17;;;0.97;95.90
58785;BME280;44557;51.862;19.378;2022-12-10T02:43:45;98316.80;;;1.00;95.93
58785;BME280;44557;51.862;19.378;2022-12-10T02:44:47;98314.67;;;1.05;95.86
58785;BME280;44557;51.862;19.378;2022-12-10T02:45:50;98316.94;;;1.03;95.78
58785;BME280;44557;51.862;19.378;2022-12-10T02:46:55;98317.62;;;1.00;95.81
58785;BME280;44557;51.862;19.378;2022-12-10T02:47:59;98317.98;;;1.01;95.87
58785;BME280;44557;51.862;19.378;2022-12-10T02:49:04;98317.98;;;1.03;95.77
58785;BME280;44557;51.862;19.378;2022-12-10T02:50:08;98317.90;;;1.04;95.67
58785;BME280;44557;51.862;19.378;2022-12-10T02:51:11;98315.94;;;1.04;95.45
58785;BME280;44557;51.862;19.378;2022-12-10T02:52:14;98314.90;;;1.03;95.56
58785;BME280;44557;51.862;19.378;2022-12-10T02:53:16;98312.02;;;1.01;95.71
58785;BME280;44557;51.862;19.378;2022-12-10T02:55:51;98313.25;;;1.01;95.42
58785;BME280;44557;51.862;19.378;2022-12-10T02:56:58;98316.58;;;1.01;95.69
58785;BME280;44557;51.862;19.378;2022-12-10T02:58:26;98316.67;;;1.01;95.70
58785;BME280;44557;51.862;19.378;2022-12-10T02:59:38;98320.65;;;1.06;95.82
58785;BME280;44557;51.862;19.378;2022-12-10T03:01:02;98321.20;;;1.02;95.43
58785;BME280;44557;51.862;19.378;2022-12-10T03:02:12;98320.16;;;1.00;95.58
58785;BME280;44557;51.862;19.378;2022-12-10T03:03:49;98318.11;;;1.00;95.47
58785;BME280;44557;51.862;19.378;2022-12-10T03:05:12;98316.23;;;1.01;95.28
58785;BME280;44557;51.862;19.378;2022-12-10T03:06:32;98313.48;;;1.07;95.29
58785;BME280;44557;51.862;19.378;2022-12-10T03:09:02;98309.80;;;1.04;95.17
58785;BME280;44557;51.862;19.378;2022-12-10T03:11:28;98308.85;;;0.97;95.40
58785;BME280;44557;51.862;19.378;2022-12-10T03:12:36;98313.39;;;0.97;95.57
58785;BME280;44557;51.862;19.378;2022-12-10T03:14:07;98309.75;;;0.96;95.70
58785;BME280;44557;51.862;19.378;2022-12-10T03:15:12;98311.30;;;0.99;95.50
58785;BME280;44557;51.862;19.378;2022-12-10T03:16:16;98313.50;;;1.00;95.43
58785;BME280;44557;51.862;19.378;2022-12-10T03:17:19;98313.10;;;0.99;95.34
58785;BME280;44557;51.862;19.378;2022-12-10T03:18:22;98311.77;;;0.99;95.78
58785;BME280;44557;51.862;19.378;2022-12-10T03:19:30;98315.45;;;1.00;95.54
58785;BME280;44557;51.862;19.378;2022-12-10T03:20:38;98318.09;;;1.03;95.12
58785;BME280;44557;51.862;19.378;2022-12-10T03:21:41;98319.61;;;1.07;95.13
58785;BME280;44557;51.862;19.378;2022-12-10T03:22:45;98319.76;;;1.06;94.91
58785;BME280;44557;51.862;19.378;2022-12-10T03:23:49;98323.83;;;0.97;95.52
58785;BME280;44557;51.862;19.378;2022-12-10T03:24:51;98319.27;;;0.94;95.46
58785;BME280;44557;51.862;19.378;2022-12-10T03:25:54;98319.89;;;0.98;95.78
58785;BME280;44557;51.862;19.378;2022-12-10T03:26:57;98322.80;;;0.98;95.65
58785;BME280;44557;51.862;19.378;2022-12-10T03:28:00;98324.56;;;0.99;95.65
58785;BME280;44557;51.862;19.378;2022-12-10T03:29:08;98329.15;;;0.98;95.30
58785;BME280;44557;51.862;19.378;2022-12-10T03:30:10;98324.71;;;1.01;95.02
58785;BME280;44557;51.862;19.378;2022-12-10T03:31:12;98329.92;;;0.98;95.41
58785;BME280;44557;51.862;19.378;2022-12-10T03:32:16;98327.80;;;1.01;95.20
58785;BME280;44557;51.862;19.378;2022-12-10T03:33:19;98321.21;;;0.98;95.19
58785;BME280;44557;51.862;19.378;2022-12-10T03:34:22;98321.09;;;0.94;95.36
58785;BME280;44557;51.862;19.378;2022-12-10T03:35:23;98319.45;;;0.98;95.35
58785;BME280;44557;51.862;19.378;2022-12-10T03:36:27;98322.03;;;1.01;95.36
58785;BME280;44557;51.862;19.378;2022-12-10T03:37:30;98320.11;;;1.00;95.27
58785;BME280;44557;51.862;19.378;2022-12-10T03:38:33;98326.39;;;1.00;95.16
58785;BME280;44557;51.862;19.378;2022-12-10T03:39:35;98324.37;;;1.03;95.40
58785;BME280;44557;51.862;19.378;2022-12-10T03:40:37;98322.85;;;1.01;95.11
58785;BME280;44557;51.862;19.378;2022-12-10T03:41:39;98325.73;;;1.01;95.20
58785;BME280;44557;51.862;19.378;2022-12-10T03:42:40;98322.44;;;0.96;95.35
58785;BME280;44557;51.862;19.378;2022-12-10T03:43:56;98322.14;;;0.99;95.40
58785;BME280;44557;51.862;19.378;2022-12-10T03:44:58;98324.17;;;0.98;95.07
58785;BME280;44557;51.862;19.378;2022-12-10T03:46:00;98325.36;;;0.97;95.45
58785;BME280;44557;51.862;19.378;2022-12-10T03:47:04;98326.40;;;1.02;95.06
58785;BME280;44557;51.862;19.378;2022-12-10T03:48:06;98327.36;;;1.01;94.98
58785;BME280;44557;51.862;19.378;2022-12-10T03:49:09;98327.34;;;0.95;95.10
58785;BME280;44557;51.862;19.378;2022-12-10T03:50:11;98325.58;;;0.94;95.55
58785;BME280;44557;51.862;19.378;2022-12-10T03:51:13;98326.73;;;0.93;95.57
58785;BME280;44557;51.862;19.378;2022-12-10T03:52:14;98325.33;;;0.98;95.78
58785;BME280;44557;51.862;19.378;2022-12-10T03:53:16;98330.77;;;0.95;95.63
58785;BME280;44557;51.862;19.378;2022-12-10T03:54:18;98328.17;;;0.92;95.43
58785;BME280;44557;51.862;19.378;2022-12-10T03:55:20;98326.13;;;0.91;95.53
58785;BME280;44557;51.862;19.378;2022-12-10T03:56:21;98323.35;;;0.85;95.81
58785;BME280;44557;51.862;19.378;2022-12-10T03:57:23;98326.80;;;0.84;96.19
58785;BME280;44557;51.862;19.378;2022-12-10T03:58:25;98324.24;;;0.84;96.11
58785;BME280;44557;51.862;19.378;2022-12-10T03:59:26;98327.21;;;0.89;96.19
58785;BME280;44557;51.862;19.378;2022-12-10T04:00:28;98328.68;;;0.91;95.72
58785;BME280;44557;51.862;19.378;2022-12-10T04:01:30;98329.08;;;0.88;96.02
58785;BME280;44557;51.862;19.378;2022-12-10T04:02:31;98330.19;;;0.90;95.95
58785;BME280;44557;51.862;19.378;2022-12-10T04:03:37;98330.79;;;0.89;95.87
58785;BME280;44557;51.862;19.378;2022-12-10T04:04:39;98329.00;;;0.85;96.27
58785;BME280;44557;51.862;19.378;2022-12-10T04:05:40;98330.95;;;0.83;96.13
58785;BME280;44557;51.862;19.378;2022-12-10T04:06:42;98332.30;;;0.84;95.98
58785;BME280;44557;51.862;19.378;2022-12-10T04:07:44;98335.27;;;0.90;96.13
58785;BME280;44557;51.862;19.378;2022-12-10T04:08:46;98335.30;;;0.87;96.21
58785;BME280;44557;51.862;19.378;2022-12-10T04:09:48;98336.05;;;0.94;95.90
58785;BME280;44557;51.862;19.378;2022-12-10T04:10:50;98340.10;;;0.99;95.98
58785;BME280;44557;51.862;19.378;2022-12-10T04:11:55;98340.50;;;0.87;95.80
58785;BME280;44557;51.862;19.378;2022-12-10T04:12:57;98341.13;;;0.90;96.09
58785;BME280;44557;51.862;19.378;2022-12-10T04:14:17;98340.66;;;0.87;96.07
58785;BME280;44557;51.862;19.378;2022-12-10T04:15:38;98344.81;;;0.90;96.01
58785;BME280;44557;51.862;19.378;2022-12-10T04:16:59;98344.90;;;0.88;96.07
58785;BME280;44557;51.862;19.378;2022-12-10T04:18:01;98345.98;;;0.91;96.13
58785;BME280;44557;51.862;19.378;2022-12-10T04:19:14;98347.35;;;0.83;95.79
58785;BME280;44557;51.862;19.378;2022-12-10T04:20:16;98348.01;;;0.81;96.04
58785;BME280;44557;51.862;19.378;2022-12-10T04:21:38;98349.23;;;0.84;96.19
58785;BME280;44557;51.862;19.378;2022-12-10T04:22:59;98352.96;;;0.87;96.29
58785;BME280;44557;51.862;19.378;2022-12-10T04:24:22;98355.58;;;0.89;96.02
58785;BME280;44557;51.862;19.378;2022-12-10T04:25:42;98360.36;;;0.86;95.91
58785;BME280;44557;51.862;19.378;2022-12-10T04:27:07;98352.71;;;0.84;95.89
58785;BME280;44557;51.862;19.378;2022-12-10T04:28:09;98353.48;;;0.81;95.92
58785;BME280;44557;51.862;19.378;2022-12-10T04:29:11;98357.74;;;0.73;96.35
58785;BME280;44557;51.862;19.378;2022-12-10T04:30:12;98357.61;;;0.78;95.92
58785;BME280;44557;51.862;19.378;2022-12-10T04:31:14;98357.69;;;0.75;95.93
58785;BME280;44557;51.862;19.378;2022-12-10T04:32:15;98355.30;;;0.80;96.16
58785;BME280;44557;51.862;19.378;2022-12-10T04:33:17;98351.90;;;0.86;95.96
58785;BME280;44557;51.862;19.378;2022-12-10T04:34:19;98349.76;;;0.80;95.79
58785;BME280;44557;51.862;19.378;2022-12-10T04:35:21;98357.33;;;0.81;95.95
58785;BME280;44557;51.862;19.378;2022-12-10T04:36:23;98354.73;;;0.76;96.04
58785;BME280;44557;51.862;19.378;2022-12-10T04:37:27;98349.95;;;0.81;95.95
58785;BME280;44557;51.862;19.378;2022-12-10T04:38:29;98349.02;;;0.84;95.87
58785;BME280;44557;51.862;19.378;2022-12-10T04:39:31;98351.09;;;0.86;95.76
58785;BME280;44557;51.862;19.378;2022-12-10T04:40:33;98357.39;;;0.87;95.79
58785;BME280;44557;51.862;19.378;2022-12-10T04:41:34;98353.55;;;0.80;95.69
58785;BME280;44557;51.862;19.378;2022-12-10T04:42:36;98357.91;;;0.79;95.97
58785;BME280;44557;51.862;19.378;2022-12-10T04:43:37;98360.10;;;0.81;95.75
58785;BME280;44557;51.862;19.378;2022-12-10T04:44:39;98358.52;;;0.83;95.99
58785;BME280;44557;51.862;19.378;2022-12-10T04:45:40;98364.88;;;0.81;96.02
58785;BME280;44557;51.862;19.378;2022-12-10T04:46:42;98363.80;;;0.85;95.77
58785;BME280;44557;51.862;19.378;2022-12-10T04:47:43;98363.57;;;0.90;95.98
58785;BME280;44557;51.862;19.378;2022-12-10T04:48:45;98361.08;;;0.88;95.80
58785;BME280;44557;51.862;19.378;2022-12-10T04:49:47;98360.91;;;0.83;95.93
58785;BME280;44557;51.862;19.378;2022-12-10T04:50:48;98358.85;;;0.85;95.82
58785;BME280;44557;51.862;19.378;2022-12-10T04:51:50;98359.28;;;0.86;95.96
58785;BME280;44557;51.862;19.378;2022-12-10T04:52:53;98357.11;;;0.83;95.88
58785;BME280;44557;51.862;19.378;2022-12-10T04:53:55;98362.89;;;0.80;96.08
58785;BME280;44557;51.862;19.378;2022-12-10T04:54:57;98363.20;;;0.82;95.97
58785;BME280;44557;51.862;19.378;2022-12-10T04:55:59;98365.06;;;0.87;95.81
58785;BME280;44557;51.862;19.378;2022-12-10T04:57:02;98363.34;;;0.88;95.81
58785;BME280;44557;51.862;19.378;2022-12-10T04:58:04;98362.79;;;0.88;95.51
58785;BME280;44557;51.862;19.378;2022-12-10T04:59:06;98363.80;;;0.90;95.30
58785;BME280;44557;51.862;19.378;2022-12-10T05:00:08;98360.17;;;0.90;95.62
58785;BME280;44557;51.862;19.378;2022-12-10T05:01:11;98364.64;;;0.88;95.42
58785;BME280;44557;51.862;19.378;2022-12-10T05:02:14;98364.91;;;0.95;95.27
58785;BME280;44557;51.862;19.378;2022-12-10T05:03:16;98361.80;;;0.96;95.49
58785;BME280;44557;51.862;19.378;2022-12-10T05:04:18;98361.11;;;0.93;95.30
58785;BME280;44557;51.862;19.378;2022-12-10T05:05:19;98359.00;;;0.93;95.15
58785;BME280;44557;51.862;19.378;2022-12-10T05:06:21;98356.95;;;0.95;95.36
58785;BME280;44557;51.862;19.378;2022-12-10T05:07:23;98358.52;;;0.97;95.22
58785;BME280;44557;51.862;19.378;2022-12-10T05:08:24;98357.48;;;0.93;95.25
58785;BME280;44557;51.862;19.378;2022-12-10T05:09:26;98354.27;;;0.94;95.08
58785;BME280;44557;51.862;19.378;2022-12-10T05:10:28;98352.98;;;0.95;95.33
58785;BME280;44557;51.862;19.378;2022-12-10T05:11:30;98353.59;;;0.93;95.17
58785;BME280;44557;51.862;19.378;2022-12-10T05:12:32;98353.48;;;0.93;95.26
58785;BME280;44557;51.862;19.378;2022-12-10T05:13:34;98349.01;;;0.91;94.93
58785;BME280;44557;51.862;19.378;2022-12-10T05:14:36;98347.07;;;0.96;94.87
58785;BME280;44557;51.862;19.378;2022-12-10T05:15:38;98348.67;;;0.85;95.04
58785;BME280;44557;51.862;19.378;2022-12-10T05:16:40;98347.98;;;0.84;95.55
58785;BME280;44557;51.862;19.378;2022-12-10T05:17:42;98354.33;;;0.82;95.58
58785;BME280;44557;51.862;19.378;2022-12-10T05:18:44;98353.06;;;0.84;95.24
58785;BME280;44557;51.862;19.378;2022-12-10T05:19:45;98355.56;;;0.89;95.21
58785;BME280;44557;51.862;19.378;2022-12-10T05:20:47;98359.76;;;0.86;95.19
58785;BME280;44557;51.862;19.378;2022-12-10T05:21:49;98363.09;;;0.80;95.62
58785;BME280;44557;51.862;19.378;2022-12-10T05:23:10;98362.42;;;0.88;95.39
58785;BME280;44557;51.862;19.378;2022-12-10T05:24:29;98362.39;;;0.89;95.29
58785;BME280;44557;51.862;19.378;2022-12-10T05:25:31;98366.42;;;0.91;95.05
58785;BME280;44557;51.862;19.378;2022-12-10T05:26:53;98367.07;;;0.89;95.34
58785;BME280;44557;51.862;19.378;2022-12-10T05:27:54;98373.11;;;0.85;95.68
58785;BME280;44557;51.862;19.378;2022-12-10T05:28:56;98368.89;;;0.85;95.55
58785;BME280;44557;51.862;19.378;2022-12-10T05:29:58;98370.55;;;0.87;95.37
58785;BME280;44557;51.862;19.378;2022-12-10T05:31:00;98373.73;;;0.87;95.35
58785;BME280;44557;51.862;19.378;2022-12-10T05:32:03;98378.38;;;0.90;95.23
58785;BME280;44557;51.862;19.378;2022-12-10T05:33:05;98379.23;;;0.93;95.07
58785;BME280;44557;51.862;19.378;2022-12-10T05:34:08;98381.26;;;0.92;94.95
58785;BME280;44557;51.862;19.378;2022-12-10T05:35:11;98386.09;;;0.94;94.78
58785;BME280;44557;51.862;19.378;2022-12-10T05:36:15;98387.23;;;0.94;95.13
58785;BME280;44557;51.862;19.378;2022-12-10T05:37:17;98393.10;;;0.89;95.07
58785;BME280;44557;51.862;19.378;2022-12-10T05:38:19;98393.60;;;0.88;95.34
58785;BME280;44557;51.862;19.378;2022-12-10T05:39:21;98398.27;;;0.88;95.26
58785;BME280;44557;51.862;19.378;2022-12-10T05:40:22;98399.19;;;0.85;95.39
58785;BME280;44557;51.862;19.378;2022-12-10T05:41:27;98398.84;;;0.89;95.18
58785;BME280;44557;51.862;19.378;2022-12-10T05:42:29;98397.45;;;0.93;95.12
58785;BME280;44557;51.862;19.378;2022-12-10T05:43:31;98397.20;;;0.87;95.16
58785;BME280;44557;51.862;19.378;2022-12-10T05:44:33;98398.14;;;0.89;94.95
58785;BME280;44557;51.862;19.378;2022-12-10T05:45:34;98399.80;;;0.90;95.10
58785;BME280;44557;51.862;19.378;2022-12-10T05:46:36;98399.48;;;0.94;94.82
58785;BME280;44557;51.862;19.378;2022-12-10T05:47:38;98398.73;;;0.91;94.79
58785;BME280;44557;51.862;19.378;2022-12-10T05:48:40;98402.14;;;0.87;94.84
58785;BME280;44557;51.862;19.378;2022-12-10T05:49:42;98403.52;;;0.83;94.80
58785;BME280;44557;51.862;19.378;2022-12-10T05:50:43;98405.86;;;0.81;95.23
58785;BME280;44557;51.862;19.378;2022-12-10T05:51:45;98404.20;;;0.87;95.46
58785;BME280;44557;51.862;19.378;2022-12-10T05:52:46;98404.69;;;0.89;94.73
58785;BME280;44557;51.862;19.378;2022-12-10T05:53:48;98405.23;;;0.89;94.89
58785;BME280;44557;51.862;19.378;2022-12-10T05:54:50;98407.43;;;0.87;94.69
58785;BME280;44557;51.862;19.378;2022-12-10T05:55:59;98405.16;;;0.82;95.03
58785;BME280;44557;51.862;19.378;2022-12-10T05:57:01;98401.14;;;0.85;95.22
58785;BME280;44557;51.862;19.378;2022-12-10T05:58:02;98401.98;;;0.82;94.90
58785;BME280;44557;51.862;19.378;2022-12-10T05:59:04;98403.33;;;0.84;94.66
58785;BME280;44557;51.862;19.378;2022-12-10T06:00:06;98404.56;;;0.81;94.64
58785;BME280;44557;51.862;19.378;2022-12-10T06:01:13;98406.17;;;0.83;94.63